createdAt,value
2022-11-16T04:59:42.656Z,99522.03
2022-11-16T05:02:46.110Z,99518.34
2022-11-16T05:05:50.298Z,99519.53
2022-11-16T05:08:53.302Z,99525.06
2022-11-16T05:11:55.830Z,99522.88
2022-11-16T05:14:59.250Z,99518.88
2022-11-16T05:18:01.972Z,99516.19
2022-11-16T05:21:05.061Z,99518.72
2022-11-16T05:24:27.173Z,99514.00
2022-11-16T05:27:31.046Z,99513.13
2022-11-16T05:30:33.664Z,99507.44
2022-11-16T05:33:38.052Z,99508.81
2022-11-16T05:36:40.982Z,99500.81
2022-11-16T05:39:44.053Z,99492.44
2022-11-16T05:42:46.690Z,99492.44
2022-11-16T05:45:49.470Z,99488.47
2022-11-16T05:48:52.259Z,99485.28
2022-11-16T05:51:55.125Z,99485.59
2022-11-16T05:54:57.927Z,99480.72
2022-11-16T05:58:01.031Z,99466.03
2022-11-16T06:01:04.079Z,99473.72
2022-11-16T06:04:07.747Z,99467.00
2022-11-16T06:07:10.426Z,99469.31
2022-11-16T06:10:13.342Z,99466.34
2022-11-16T06:13:17.296Z,99469.03
2022-11-16T06:16:20.344Z,99462.31
2022-11-16T06:19:26.960Z,99463.28
2022-11-16T06:22:32.989Z,99456.72
2022-11-16T06:25:38.532Z,99464.28
2022-11-16T06:28:41.828Z,99465.59
2022-11-16T06:31:44.534Z,99473.78
2022-11-16T06:34:48.207Z,99467.41
2022-11-16T06:37:51.156Z,99474.63
2022-11-16T06:40:58.324Z,99469.94
2022-11-16T06:44:01.688Z,99470.09
2022-11-16T06:47:05.127Z,99458.34
2022-11-16T06:50:08.851Z,99459.34
2022-11-16T06:53:11.661Z,99453.34
2022-11-16T06:56:16.350Z,99452.50
2022-11-16T06:59:19.820Z,99450.44
2022-11-16T07:02:23.261Z,99445.56
2022-11-16T07:05:26.204Z,99448.84
2022-11-16T07:08:30.187Z,99443.94
2022-11-16T07:11:34.634Z,99440.91
2022-11-16T07:14:37.507Z,99437.41
2022-11-16T07:17:41.515Z,99433.25
2022-11-16T07:20:44.424Z,99424.44
2022-11-16T07:23:47.358Z,99428.97
2022-11-16T07:26:50.864Z,99428.06
2022-11-16T07:29:54.301Z,99434.59
2022-11-16T07:32:58.918Z,99434.97
2022-11-16T07:36:10.140Z,99431.91
2022-11-16T07:39:13.121Z,99427.94
2022-11-16T07:42:16.053Z,99421.69
2022-11-16T07:45:18.830Z,99414.59
2022-11-16T07:48:23.188Z,99416.56
2022-11-16T07:51:27.976Z,99422.37
2022-11-16T07:54:33.606Z,99416.78
2022-11-16T07:57:36.285Z,99415.53
2022-11-16T08:00:39.504Z,99408.16
2022-11-16T08:03:44.749Z,99401.06
2022-11-16T08:06:47.916Z,99402.66
2022-11-16T08:09:51.083Z,99402.81
2022-11-16T08:12:54.788Z,99392.13
2022-11-16T08:16:02.385Z,99385.19
2022-11-16T08:19:05.041Z,99400.34
2022-11-16T08:22:09.613Z,99393.97
2022-11-16T08:25:14.331Z,99403.69
2022-11-16T08:28:17.707Z,99400.53
2022-11-16T08:31:31.479Z,99398.13
2022-11-16T08:34:34.832Z,99385.03
2022-11-16T08:37:39.195Z,99391.75
2022-11-16T08:40:43.426Z,99386.50
2022-11-16T08:43:47.395Z,99391.97
2022-11-16T08:46:50.787Z,99388.63
2022-11-16T08:49:53.730Z,99389.94
2022-11-16T08:52:57.409Z,99385.47
2022-11-16T08:56:11.770Z,99389.94
2022-11-16T08:59:14.879Z,99393.81
2022-11-16T09:02:25.431Z,99390.00
2022-11-16T09:05:28.858Z,99386.88
2022-11-16T09:08:31.820Z,99380.19
2022-11-16T09:11:34.788Z,99378.09
2022-11-16T09:14:37.227Z,99372.72
2022-11-16T09:17:40.075Z,99375.87
2022-11-16T09:20:45.657Z,99367.81
2022-11-16T09:23:49.456Z,99366.34
2022-11-16T09:26:51.903Z,99372.16
2022-11-16T09:29:54.679Z,99369.94
2022-11-16T09:32:59.058Z,99366.25
2022-11-16T09:36:07.017Z,99376.69
2022-11-16T09:39:30.510Z,99367.81
2022-11-16T09:43:15.605Z,99369.37
2022-11-16T09:46:36.506Z,99360.69
2022-11-16T09:50:03.711Z,99347.19
2022-11-16T09:53:36.298Z,99335.69
2022-11-16T09:56:42.475Z,99341.06
2022-11-16T09:59:52.214Z,99344.50
2022-11-16T10:03:04.176Z,99334.06
2022-11-16T10:06:21.413Z,99328.69
2022-11-16T10:09:25.856Z,99327.03
2022-11-16T10:12:43.626Z,99321.09
2022-11-16T10:16:14.287Z,99317.19
2022-11-16T10:19:34.750Z,99313.03
2022-11-16T10:22:54.508Z,99300.22
2022-11-16T10:26:19.791Z,99295.56
2022-11-16T10:29:46.577Z,99297.72
2022-11-16T10:32:55.459Z,99292.94
2022-11-16T10:35:58.205Z,99281.62
2022-11-16T10:39:02.502Z,99279.88
2022-11-16T10:42:10.931Z,99281.25
2022-11-16T10:45:21.689Z,99278.78
2022-11-16T10:48:53.494Z,99271.63
2022-11-16T10:51:56.664Z,99272.44
2022-11-16T10:54:59.197Z,99262.31
2022-11-16T10:58:04.871Z,99263.78
2022-11-16T11:01:10.831Z,99249.44
2022-11-16T11:04:21.974Z,99252.16
2022-11-16T11:07:39.959Z,99242.75
2022-11-16T11:10:43.299Z,99246.56
2022-11-16T11:13:45.935Z,99238.06
2022-11-16T11:16:53.472Z,99225.66
2022-11-16T11:20:04.321Z,99214.56
2022-11-16T11:23:20.708Z,99215.13
2022-11-16T11:26:36.174Z,99213.00
2022-11-16T11:29:42.624Z,99211.81
2022-11-16T11:32:46.146Z,99201.91
2022-11-16T11:35:58.940Z,99200.69
2022-11-16T11:39:07.836Z,99206.44
2022-11-16T11:42:13.795Z,99197.12
2022-11-16T11:45:17.534Z,99190.56
2022-11-16T11:48:42.467Z,99186.97
2022-11-16T11:51:47.340Z,99186.19
2022-11-16T11:54:52.418Z,99182.50
2022-11-16T11:57:56.613Z,99181.03
2022-11-16T12:01:20.815Z,99176.06
2022-11-16T12:04:54.242Z,99178.53
2022-11-16T12:08:02.908Z,99181.81
2022-11-16T12:11:12.647Z,99181.22
2022-11-16T12:14:21.094Z,99179.19
2022-11-16T12:17:32.673Z,99173.13
2022-11-16T12:21:03.899Z,99176.53
2022-11-16T12:24:35.557Z,99171.84
2022-11-16T12:28:06.153Z,99176.69
2022-11-16T12:31:44.619Z,99178.09
2022-11-16T12:35:12.178Z,99173.94
2022-11-16T12:38:33.781Z,99172.13
2022-11-16T12:41:55.797Z,99172.66
2022-11-16T12:45:19.116Z,99167.50
2022-11-16T12:48:57.643Z,99158.03
2022-11-16T12:52:36.738Z,99151.06
2022-11-16T12:55:56.613Z,99151.53
2022-11-16T12:59:20.653Z,99144.88
2022-11-16T13:02:38.547Z,99146.53
2022-11-16T13:06:19.596Z,99138.06
2022-11-16T13:09:27.979Z,99149.38
2022-11-16T13:12:32.268Z,99150.19
2022-11-16T13:15:38.575Z,99142.81
2022-11-16T13:18:42.950Z,99151.03
2022-11-16T13:21:56.273Z,99150.38
2022-11-16T13:25:17.483Z,99145.66
2022-11-16T13:28:36.781Z,99148.72
2022-11-16T13:32:18.856Z,99141.34
2022-11-16T13:35:23.109Z,99138.88
2022-11-16T13:38:52.498Z,99132.06
2022-11-16T13:42:13.423Z,99141.78
2022-11-16T13:45:20.721Z,99135.81
2022-11-16T13:48:38.127Z,99140.94
2022-11-16T13:51:51.769Z,99134.94
2022-11-16T13:54:55.980Z,99135.97
2022-11-16T13:58:01.309Z,99132.91
2022-11-16T14:01:10.927Z,99132.78
2022-11-16T14:04:35.575Z,99126.31
2022-11-16T14:07:47.214Z,99122.56
2022-11-16T14:10:52.806Z,99127.72
2022-11-16T14:13:55.645Z,99122.75
2022-11-16T14:16:58.718Z,99120.06
2022-11-16T14:20:01.399Z,99121.16
2022-11-16T14:23:39.283Z,99120.88
2022-11-16T14:27:00.108Z,99113.31
2022-11-16T14:30:13.791Z,99104.81
2022-11-16T14:33:31.159Z,99108.91
2022-11-16T14:36:39.001Z,99105.00
2022-11-16T14:39:45.905Z,99100.59
2022-11-16T14:46:26.315Z,99106.22
2022-11-16T14:49:33.557Z,99108.47
2022-11-16T14:52:45.082Z,99107.03
2022-11-16T14:55:47.834Z,99103.94
2022-11-16T14:59:02.178Z,99096.94
2022-11-16T15:02:16.358Z,99095.06
2022-11-16T15:05:21.383Z,99090.59
2022-11-16T15:08:31.812Z,99091.88
2022-11-16T15:11:57.528Z,99075.41
2022-11-16T15:15:08.030Z,99088.38
2022-11-16T15:18:14.843Z,99085.69
2022-11-16T15:21:24.908Z,99078.91
2022-11-16T15:24:31.778Z,99078.47
2022-11-16T15:27:42.629Z,99077.38
2022-11-16T15:30:50.380Z,99076.56
2022-11-16T15:33:53.359Z,99075.34
2022-11-16T15:36:55.909Z,99076.81
2022-11-16T15:40:00.070Z,99072.69
2022-11-16T15:43:05.840Z,99077.00
2022-11-16T15:46:09.143Z,99074.78
2022-11-16T15:49:26.606Z,99076.00
2022-11-16T15:52:50.984Z,99070.16
2022-11-16T15:55:53.599Z,99067.56
2022-11-16T15:58:59.011Z,99066.94
2022-11-16T16:02:03.614Z,99076.44
2022-11-16T16:05:06.853Z,99071.91
2022-11-16T16:08:25.968Z,99064.28
2022-11-16T16:11:28.782Z,99062.78
2022-11-16T16:14:31.344Z,99065.19
2022-11-16T16:17:34.429Z,99057.38
2022-11-16T16:20:37.729Z,99058.44
2022-11-16T16:23:47.323Z,99060.50
2022-11-16T16:26:49.839Z,99058.19
2022-11-16T16:30:04.015Z,99058.97
2022-11-16T16:33:06.587Z,99055.47
2022-11-16T16:36:11.589Z,99055.50
2022-11-16T16:39:13.960Z,99060.50
2022-11-16T16:42:17.744Z,99065.41
2022-11-16T16:45:27.224Z,99061.66
2022-11-16T16:48:30.671Z,99060.50
2022-11-16T16:51:33.155Z,99059.41
2022-11-16T16:54:36.366Z,99051.62
2022-11-16T16:57:38.843Z,99052.19
